EA7CL-10 Weather Reports


Display with metric or nautical units.
time (UTC)temp
F
wind
direction
speed
MPH
gust
MPH
rain 1hr
in
rain 24hr
in
rain mn
in
humidity
%
barometer
mb
20240715002216 74 180 3.0 4.0 0.00 0.00 0.00 72 1014.2
20240715001217 75 203 1.0 2.0 0.00 0.00 0.00 71 1014.3
20240715000216 75 203 2.0 4.0 0.00 0.00 0.00 70 1014.4
20240714235216 75 180 2.0 3.0 0.00 0.00 0.00 70 1014.4
20240714234216 75 225 2.0 3.0 0.00 0.00 0.00 70 1014.4
20240714233236 74 270 2.0 3.0 0.00 0.00 0.00 71 1014.4
20240714232216 74 270 1.0 2.0 0.00 0.00 0.00 71 1014.4
20240714231217 74 0.0 0.0 0.00 0.00 0.00 71 1014.2
20240714230216 74 0.0 1.0 0.00 0.00 0.00 72 1014.3
20240714225217 74 0.0 1.0 0.00 0.00 0.00 72 1014.4
20240714224237 73 90 1.0 2.0 0.00 0.00 0.00 72 1014.4
20240714223215 74 90 1.0 1.0 0.00 0.00 0.00 72 1014.3
20240714222216 73 90 1.0 2.0 0.00 0.00 0.00 73 1014.3
20240714221217 73 0.0 1.0 0.00 0.00 0.00 73 1014.3
20240714220217 73 0.0 1.0 0.00 0.00 0.00 73 1014.3
20240714215216 73 90 2.0 3.0 0.00 0.00 0.00 72 1014.3
20240714214217 73 90 3.0 4.0 0.00 0.00 0.00 72 1014.4
20240714213217 74 90 4.0 7.0 0.00 0.00 0.00 72 1014.2
20240714212216 74 135 4.0 7.0 0.00 0.00 0.00 70 1014.2
20240714211237 74 113 2.0 2.0 0.00 0.00 0.00 69 1014.1
20240714210217 74 135 1.0 1.0 0.00 0.00 0.00 69 1014.0
20240714205216 74 113 3.0 4.0 0.00 0.00 0.00 69 1013.9
20240714204236 74 90 3.0 6.0 0.00 0.00 0.00 68 1013.9
20240714203238 74 90 3.0 4.0 0.00 0.00 0.00 68 1013.7
20240714202216 75 90 2.0 4.0 0.00 0.00 0.00 68 1013.6
20240714201238 75 113 4.0 6.0 0.00 0.00 0.00 68 1013.7
20240714200216 76 90 4.0 8.0 0.00 0.00 0.00 65 1013.5
20240714195236 77 90 8.0 9.0 0.00 0.00 0.00 60 1013.5
20240714194217 78 90 3.0 4.0 0.00 0.00 0.00 57 1013.3
20240714193216 79 180 3.0 5.0 0.00 0.00 0.00 53 1013.2
20240714192218 80 113 2.0 5.0 0.00 0.00 0.00 43 1013.1
20240714191217 81 158 3.0 7.0 0.00 0.00 0.00 43 1013.1
20240714190216 81 203 3.0 6.0 0.00 0.00 0.00 43 1013.0
20240714185217 81 135 2.0 4.0 0.00 0.00 0.00 44 1012.9
20240714184216 81 135 2.0 3.0 0.00 0.00 0.00 44 1013.0
20240714183216 82 113 2.0 3.0 0.00 0.00 0.00 44 1013.1
20240714182220 82 113 2.0 4.0 0.00 0.00 0.00 43 1013.0
20240714181216 82 135 4.0 5.0 0.00 0.00 0.00 44 1013.0
20240714180216 82 135 4.0 6.0 0.00 0.00 0.00 44 1013.0
20240714175216 82 90 3.0 6.0 0.00 0.00 0.00 45 1013.1
20240714174236 81 68 2.0 4.0 0.00 0.00 0.00 49 1013.0
20240714173216 81 135 3.0 6.0 0.00 0.00 0.00 51 1013.1
20240714172216 81 113 5.0 8.0 0.00 0.00 0.00 53 1013.1
20240714171257 81 113 7.0 9.0 0.00 0.00 0.00 55 1013.1
20240714170217 81 90 6.0 9.0 0.00 0.00 0.00 56 1013.2
20240714165216 81 135 6.0 8.0 0.00 0.00 0.00 57 1013.5
20240714164216 81 135 6.0 9.0 0.00 0.00 0.00 58 1013.4
20240714163216 80 135 6.0 10.0 0.00 0.00 0.00 62 1013.6
20240714162216 79 90 9.0 12.0 0.00 0.00 0.00 62 1013.5
20240714161236 78 113 6.0 9.0 0.00 0.00 0.00 68 1013.6
20240714160215 77 135 5.0 8.0 0.00 0.00 0.00 71 1013.8
20240714155216 77 113 6.0 8.0 0.00 0.00 0.00 72 1013.8
20240714154216 77 90 3.0 7.0 0.00 0.00 0.00 73 1014.0
20240714153217 76 135 3.0 5.0 0.00 0.00 0.00 74 1014.2
20240714152215 77 158 4.0 9.0 0.00 0.00 0.00 74 1014.1
20240714151216 76 135 9.0 10.0 0.00 0.00 0.00 75 1014.0
20240714150217 76 113 5.0 7.0 0.00 0.00 0.00 76 1014.1
20240714145216 76 113 3.0 6.0 0.00 0.00 0.00 78 1014.1
20240714144216 76 90 5.0 7.0 0.00 0.00 0.00 78 1014.2
20240714143218 77 113 6.0 10.0 0.00 0.00 0.00 76 1014.3
20240714142215 78 113 6.0 8.0 0.00 0.00 0.00 74 1014.4
20240714141237 79 135 5.0 6.0 0.00 0.00 0.00 73 1014.5
20240714140215 79 113 2.0 3.0 0.00 0.00 0.00 73 1014.5
20240714135217 79 68 4.0 7.0 0.00 0.00 0.00 74 1014.7
20240714134216 78 135 5.0 8.0 0.00 0.00 0.00 75 1014.8
20240714133215 79 135 5.0 8.0 0.00 0.00 0.00 74 1015.1
20240714132215 78 113 4.0 6.0 0.00 0.00 0.00 75 1015.1
20240714131219 78 90 3.0 7.0 0.00 0.00 0.00 76 1015.2
20240714130217 78 135 7.0 9.0 0.00 0.00 0.00 74 1015.2
20240714125217 79 180 7.0 9.0 0.00 0.00 0.00 74 1015.3
20240714124257 78 180 3.0 5.0 0.00 0.00 0.00 76 1015.3
20240714123259 78 180 4.0 6.0 0.00 0.00 0.00 76 1015.4
20240714122217 78 158 5.0 9.0 0.00 0.00 0.00 77 1015.7
20240714121217 77 203 1.0 4.0 0.00 0.00 0.00 78 1015.7
20240714120217 77 158 7.0 11.0 0.00 0.00 0.00 79 1015.7
20240714115237 76 135 5.0 7.0 0.00 0.00 0.00 80 1015.9
20240714114218 76 225 2.0 6.0 0.00 0.00 0.00 80 1015.9
20240714113217 76 113 7.0 9.0 0.00 0.00 0.00 80 1015.9
20240714112218 76 113 5.0 8.0 0.00 0.00 0.00 80 1016.0
20240714111217 76 135 6.0 8.0 0.00 0.00 0.00 79 1016.1
20240714110217 76 158 3.0 5.0 0.00 0.00 0.00 79 1016.3
20240714105217 76 158 5.0 8.0 0.00 0.00 0.00 79 1016.2
20240714104217 76 135 6.0 8.0 0.00 0.00 0.00 78 1016.3
20240714103218 77 135 5.0 8.0 0.00 0.00 0.00 78 1016.3
20240714102217 77 158 8.0 11.0 0.00 0.00 0.00 77 1016.2
20240714101217 78 158 6.0 9.0 0.00 0.00 0.00 77 1016.2
20240714100217 78 135 3.0 5.0 0.00 0.00 0.00 77 1016.1
20240714095217 77 113 3.0 6.0 0.00 0.00 0.00 76 1016.1
20240714094217 77 135 7.0 9.0 0.00 0.00 0.00 75 1016.1
20240714093217 77 135 6.0 9.0 0.00 0.00 0.00 75 1016.0
20240714092217 77 135 8.0 10.0 0.00 0.00 0.00 73 1015.9
20240714091217 79 135 4.0 6.0 0.00 0.00 0.00 71 1015.9
20240714090237 78 135 4.0 6.0 0.00 0.00 0.00 74 1015.7
20240714085217 78 135 5.0 7.0 0.00 0.00 0.00 74 1015.8
20240714084218 78 135 5.0 9.0 0.00 0.00 0.00 74 1015.7
20240714083217 77 90 3.0 7.0 0.00 0.00 0.00 76 1015.8
20240714082216 78 113 4.0 6.0 0.00 0.00 0.00 76 1015.7
20240714081237 77 113 4.0 6.0 0.00 0.00 0.00 76 1015.7
20240714080217 77 23 1.0 2.0 0.00 0.00 0.00 76 1015.5
20240714075217 77 113 3.0 5.0 0.00 0.00 0.00 76 1015.5
20240714074216 77 135 3.0 5.0 0.00 0.00 0.00 76 1015.5
20240714073216 77 90 1.0 3.0 0.00 0.00 0.00 77 1015.4
20240714072236 76 135 3.0 4.0 0.00 0.00 0.00 78 1015.4
20240714071216 75 113 1.0 2.0 0.00 0.00 0.00 79 1015.4
20240714070238 75 68 2.0 3.0 0.00 0.00 0.00 78 1015.3
20240714065216 75 135 4.0 5.0 0.00 0.00 0.00 78 1015.1
20240714064237 75 158 3.0 4.0 0.00 0.00 0.00 77 1015.0
20240714063216 75 135 2.0 3.0 0.00 0.00 0.00 77 1015.0
20240714062236 75 0.0 1.0 0.00 0.00 0.00 77 1014.9
20240714061237 74 135 2.0 3.0 0.00 0.00 0.00 78 1014.8
20240714060216 74 135 3.0 3.0 0.00 0.00 0.00 77 1014.7
20240714055236 74 135 2.0 3.0 0.00 0.00 0.00 77 1014.6
20240714054216 74 113 1.0 2.0 0.00 0.00 0.00 76 1014.6
20240714053236 74 113 3.0 4.0 0.00 0.00 0.00 75 1014.4
20240714052216 74 113 3.0 4.0 0.00 0.00 0.00 76 1014.3
20240714051216 74 0.0 0.0 0.00 0.00 0.00 77 1014.3
20240714050216 74 270 1.0 1.0 0.00 0.00 0.00 78 1014.3
20240714045216 74 0.0 0.0 0.00 0.00 0.00 78 1014.2
20240714044217 74 0.0 0.0 0.00 0.00 0.00 78 1014.1
20240714043216 74 270 1.0 2.0 0.00 0.00 0.00 79 1014.1
20240714042216 74 270 1.0 2.0 0.00 0.00 0.00 79 1014.1
20240714041217 74 270 2.0 3.0 0.00 0.00 0.00 79 1014.0
20240714040238 74 0.0 0.0 0.00 0.00 0.00 79 1013.9
20240714035216 74 270 2.0 3.0 0.00 0.00 0.00 80 1013.9
20240714034216 74 270 1.0 2.0 0.00 0.00 0.00 80 1013.7
20240714033216 74 0.0 1.0 0.00 0.00 0.00 80 1013.7
20240714032216 74 270 1.0 2.0 0.00 0.00 0.00 80 1013.7
20240714031216 74 270 1.0 2.0 0.00 0.00 0.00 81 1013.6
20240714030216 74 270 1.0 2.0 0.00 0.00 0.00 81 1013.5
20240714025216 74 270 1.0 3.0 0.00 0.00 0.00 81 1013.5
20240714024217 74 270 3.0 4.0 0.00 0.00 0.00 81 1013.5
20240714023216 74 270 3.0 6.0 0.00 0.00 0.00 81 1013.4
20240714022216 74 270 3.0 4.0 0.00 0.00 0.00 81 1013.2
20240714021216 74 225 4.0 5.0 0.00 0.00 0.00 81 1013.3
20240714020216 74 248 2.0 4.0 0.00 0.00 0.00 81 1013.3
20240714015217 75 248 2.0 3.0 0.00 0.00 0.00 81 1013.3
20240714014215 75 270 2.0 3.0 0.00 0.00 0.00 82 1013.3
20240714013215 75 270 2.0 3.0 0.00 0.00 0.00 82 1013.3
20240714012216 75 248 2.0 3.0 0.00 0.00 0.00 82 1013.5
20240714011236 75 203 1.0 2.0 0.00 0.00 0.00 83 1013.5
20240714010216 75 0.0 1.0 0.00 0.00 0.00 83 1013.5
20240714005237 75 203 1.0 1.0 0.00 0.00 0.00 83 1013.5
20240714004216 75 0.0 1.0 0.00 0.00 0.00 83 1013.6
20240714003216 75 203 1.0 2.0 0.00 0.00 0.00 83 1013.6